sensor_id;sensor_type;location;lat;lon;timestamp;P1;durP1;ratioP1;P2;durP2;ratioP2
23898;SDS011;20544;50.018;20.010;2023-09-19T06:42:08;21.40;;;17.35;;
23898;SDS011;20544;50.018;20.010;2023-09-19T06:45:49;20.05;;;15.85;;
23898;SDS011;20544;50.018;20.010;2023-09-19T06:49:13;16.85;;;15.05;;
23898;SDS011;20544;50.018;20.010;2023-09-19T06:52:40;16.95;;;15.15;;
23898;SDS011;20544;50.018;20.010;2023-09-19T06:59:27;17.65;;;15.88;;
23898;SDS011;20544;50.018;20.010;2023-09-19T07:02:55;19.18;;;16.03;;
23898;SDS011;20544;50.018;20.010;2023-09-19T07:06:15;14.60;;;13.13;;
23898;SDS011;20544;50.018;20.010;2023-09-19T07:09:35;15.33;;;13.88;;
23898;SDS011;20544;50.018;20.010;2023-09-19T07:12:56;16.13;;;13.93;;
23898;SDS011;20544;50.018;20.010;2023-09-19T07:16:16;15.93;;;14.38;;
23898;SDS011;20544;50.018;20.010;2023-09-19T07:19:39;15.95;;;14.15;;
23898;SDS011;20544;50.018;20.010;2023-09-19T07:22:58;16.70;;;15.00;;
23898;SDS011;20544;50.018;20.010;2023-09-19T07:26:15;16.83;;;13.80;;
23898;SDS011;20544;50.018;20.010;2023-09-19T07:29:32;15.33;;;13.70;;
23898;SDS011;20544;50.018;20.010;2023-09-19T07:32:49;16.70;;;14.33;;
23898;SDS011;20544;50.018;20.010;2023-09-19T07:36:06;17.85;;;15.33;;
23898;SDS011;20544;50.018;20.010;2023-09-19T07:39:28;17.80;;;13.88;;
23898;SDS011;20544;50.018;20.010;2023-09-19T07:42:45;15.78;;;14.25;;
23898;SDS011;20544;50.018;20.010;2023-09-19T07:46:06;21.88;;;14.65;;
23898;SDS011;20544;50.018;20.010;2023-09-19T07:49:24;18.40;;;15.65;;
23898;SDS011;20544;50.018;20.010;2023-09-19T07:52:41;16.03;;;14.40;;
23898;SDS011;20544;50.018;20.010;2023-09-19T07:56:03;22.40;;;15.08;;
23898;SDS011;20544;50.018;20.010;2023-09-19T07:59:21;16.23;;;14.30;;
23898;SDS011;20544;50.018;20.010;2023-09-19T08:02:39;14.48;;;13.13;;
23898;SDS011;20544;50.018;20.010;2023-09-19T08:06:03;18.58;;;12.90;;
23898;SDS011;20544;50.018;20.010;2023-09-19T08:09:24;80.50;;;56.40;;
23898;SDS011;20544;50.018;20.010;2023-09-19T08:12:45;72.78;;;58.83;;
23898;SDS011;20544;50.018;20.010;2023-09-19T08:16:07;22.33;;;16.85;;
23898;SDS011;20544;50.018;20.010;2023-09-19T08:19:29;12.63;;;10.55;;
23898;SDS011;20544;50.018;20.010;2023-09-19T08:22:50;8.63;;;7.00;;
23898;SDS011;20544;50.018;20.010;2023-09-19T08:26:08;9.27;;;6.50;;
23898;SDS011;20544;50.018;20.010;2023-09-19T08:29:25;6.30;;;5.70;;
23898;SDS011;20544;50.018;20.010;2023-09-19T08:32:42;8.68;;;5.20;;
23898;SDS011;20544;50.018;20.010;2023-09-19T08:35:59;5.63;;;4.83;;
23898;SDS011;20544;50.018;20.010;2023-09-19T08:39:16;5.35;;;4.85;;
23898;SDS011;20544;50.018;20.010;2023-09-19T08:42:41;5.25;;;4.75;;
23898;SDS011;20544;50.018;20.010;2023-09-19T08:46:08;9.58;;;5.30;;
23898;SDS011;20544;50.018;20.010;2023-09-19T08:49:32;7.70;;;5.33;;
23898;SDS011;20544;50.018;20.010;2023-09-19T08:52:52;6.05;;;5.18;;
23898;SDS011;20544;50.018;20.010;2023-09-19T08:56:12;6.43;;;5.15;;
23898;SDS011;20544;50.018;20.010;2023-09-19T09:02:46;8.28;;;5.15;;
23898;SDS011;20544;50.018;20.010;2023-09-19T09:06:06;5.23;;;4.63;;
23898;SDS011;20544;50.018;20.010;2023-09-19T09:09:26;4.98;;;4.30;;
23898;SDS011;20544;50.018;20.010;2023-09-19T09:12:48;20.83;;;14.60;;
23898;SDS011;20544;50.018;20.010;2023-09-19T09:16:08;6.00;;;5.50;;
23898;SDS011;20544;50.018;20.010;2023-09-19T09:19:26;4.28;;;3.75;;
23898;SDS011;20544;50.018;20.010;2023-09-19T09:22:54;4.98;;;4.18;;
23898;SDS011;20544;50.018;20.010;2023-09-19T09:26:12;5.18;;;3.85;;
23898;SDS011;20544;50.018;20.010;2023-09-19T09:29:45;7.38;;;4.53;;
23898;SDS011;20544;50.018;20.010;2023-09-19T09:33:10;5.75;;;4.38;;
23898;SDS011;20544;50.018;20.010;2023-09-19T09:36:38;5.80;;;4.33;;
23898;SDS011;20544;50.018;20.010;2023-09-19T09:39:55;5.18;;;4.58;;
23898;SDS011;20544;50.018;20.010;2023-09-19T09:43:28;4.65;;;4.23;;
23898;SDS011;20544;50.018;20.010;2023-09-19T09:46:48;5.13;;;4.53;;
23898;SDS011;20544;50.018;20.010;2023-09-19T09:50:14;4.88;;;4.05;;
23898;SDS011;20544;50.018;20.010;2023-09-19T09:57:06;4.95;;;4.15;;
23898;SDS011;20544;50.018;20.010;2023-09-19T10:00:27;24.18;;;17.98;;
23898;SDS011;20544;50.018;20.010;2023-09-19T10:03:46;10.83;;;6.55;;
23898;SDS011;20544;50.018;20.010;2023-09-19T10:07:03;6.70;;;4.95;;
23898;SDS011;20544;50.018;20.010;2023-09-19T10:10:31;7.28;;;4.60;;
23898;SDS011;20544;50.018;20.010;2023-09-19T10:13:52;5.60;;;4.13;;
23898;SDS011;20544;50.018;20.010;2023-09-19T10:17:10;4.93;;;4.33;;
23898;SDS011;20544;50.018;20.010;2023-09-19T10:20:31;9.60;;;4.73;;
23898;SDS011;20544;50.018;20.010;2023-09-19T10:23:52;6.58;;;4.55;;
23898;SDS011;20544;50.018;20.010;2023-09-19T10:27:12;6.13;;;3.78;;
23898;SDS011;20544;50.018;20.010;2023-09-19T10:30:30;5.93;;;4.20;;
23898;SDS011;20544;50.018;20.010;2023-09-19T10:33:52;7.80;;;4.85;;
23898;SDS011;20544;50.018;20.010;2023-09-19T10:37:10;4.78;;;3.65;;
23898;SDS011;20544;50.018;20.010;2023-09-19T10:40:32;7.83;;;4.20;;
23898;SDS011;20544;50.018;20.010;2023-09-19T10:43:53;4.75;;;3.88;;
23898;SDS011;20544;50.018;20.010;2023-09-19T10:47:13;6.28;;;3.75;;
23898;SDS011;20544;50.018;20.010;2023-09-19T10:50:31;6.55;;;4.45;;
23898;SDS011;20544;50.018;20.010;2023-09-19T10:53:57;6.38;;;3.55;;
23898;SDS011;20544;50.018;20.010;2023-09-19T10:57:21;6.83;;;4.08;;
23898;SDS011;20544;50.018;20.010;2023-09-19T11:04:23;5.50;;;3.63;;
23898;SDS011;20544;50.018;20.010;2023-09-19T11:07:58;4.15;;;3.75;;
23898;SDS011;20544;50.018;20.010;2023-09-19T11:15:04;5.25;;;4.18;;
23898;SDS011;20544;50.018;20.010;2023-09-19T11:22:18;4.83;;;4.13;;
23898;SDS011;20544;50.018;20.010;2023-09-19T11:25:44;8.55;;;4.45;;
23898;SDS011;20544;50.018;20.010;2023-09-19T11:36:36;4.43;;;3.98;;
23898;SDS011;20544;50.018;20.010;2023-09-19T11:43:29;6.63;;;3.98;;
23898;SDS011;20544;50.018;20.010;2023-09-19T11:46:55;4.28;;;3.45;;
23898;SDS011;20544;50.018;20.010;2023-09-19T11:50:13;5.40;;;3.78;;
23898;SDS011;20544;50.018;20.010;2023-09-19T11:53:33;6.03;;;3.75;;
23898;SDS011;20544;50.018;20.010;2023-09-19T11:56:52;5.50;;;3.37;;
23898;SDS011;20544;50.018;20.010;2023-09-19T12:00:10;6.85;;;3.40;;
23898;SDS011;20544;50.018;20.010;2023-09-19T12:03:34;5.75;;;4.03;;
23898;SDS011;20544;50.018;20.010;2023-09-19T12:06:57;4.78;;;4.28;;
23898;SDS011;20544;50.018;20.010;2023-09-19T12:10:16;4.25;;;3.85;;
23898;SDS011;20544;50.018;20.010;2023-09-19T12:13:34;5.13;;;4.00;;
23898;SDS011;20544;50.018;20.010;2023-09-19T12:16:54;6.55;;;3.93;;
23898;SDS011;20544;50.018;20.010;2023-09-19T12:20:12;4.75;;;3.80;;
23898;SDS011;20544;50.018;20.010;2023-09-19T12:23:31;4.10;;;3.70;;
23898;SDS011;20544;50.018;20.010;2023-09-19T12:26:50;4.47;;;3.30;;
23898;SDS011;20544;50.018;20.010;2023-09-19T12:30:13;3.98;;;3.50;;
23898;SDS011;20544;50.018;20.010;2023-09-19T12:33:33;4.70;;;4.10;;
23898;SDS011;20544;50.018;20.010;2023-09-19T12:37:04;4.60;;;3.68;;
23898;SDS011;20544;50.018;20.010;2023-09-19T12:40:30;4.80;;;4.17;;
23898;SDS011;20544;50.018;20.010;2023-09-19T12:44:06;4.30;;;3.83;;
23898;SDS011;20544;50.018;20.010;2023-09-19T12:47:25;5.33;;;3.98;;
23898;SDS011;20544;50.018;20.010;2023-09-19T12:54:19;5.85;;;4.95;;
23898;SDS011;20544;50.018;20.010;2023-09-19T12:57:38;7.05;;;4.28;;
23898;SDS011;20544;50.018;20.010;2023-09-19T13:00:55;6.35;;;4.83;;
23898;SDS011;20544;50.018;20.010;2023-09-19T13:04:14;5.50;;;4.43;;
23898;SDS011;20544;50.018;20.010;2023-09-19T13:07:41;7.35;;;4.38;;
23898;SDS011;20544;50.018;20.010;2023-09-19T13:11:04;7.88;;;4.38;;
23898;SDS011;20544;50.018;20.010;2023-09-19T13:14:26;7.28;;;3.98;;
23898;SDS011;20544;50.018;20.010;2023-09-19T13:17:46;4.45;;;3.98;;
23898;SDS011;20544;50.018;20.010;2023-09-19T13:21:07;5.08;;;4.60;;
23898;SDS011;20544;50.018;20.010;2023-09-19T13:24:34;4.30;;;3.90;;
23898;SDS011;20544;50.018;20.010;2023-09-19T13:27:56;5.90;;;4.35;;
23898;SDS011;20544;50.018;20.010;2023-09-19T13:31:18;9.48;;;4.55;;
23898;SDS011;20544;50.018;20.010;2023-09-19T13:34:38;5.85;;;4.28;;
23898;SDS011;20544;50.018;20.010;2023-09-19T13:38:12;4.90;;;4.35;;
23898;SDS011;20544;50.018;20.010;2023-09-19T13:41:33;6.95;;;4.85;;
23898;SDS011;20544;50.018;20.010;2023-09-19T13:44:50;5.18;;;4.68;;
23898;SDS011;20544;50.018;20.010;2023-09-19T13:48:07;6.55;;;5.05;;
23898;SDS011;20544;50.018;20.010;2023-09-19T13:51:27;9.45;;;6.83;;
23898;SDS011;20544;50.018;20.010;2023-09-19T13:54:46;5.20;;;4.25;;
23898;SDS011;20544;50.018;20.010;2023-09-19T13:58:06;30.15;;;21.00;;
23898;SDS011;20544;50.018;20.010;2023-09-19T14:01:22;43.65;;;32.13;;
23898;SDS011;20544;50.018;20.010;2023-09-19T14:04:39;10.80;;;8.95;;
23898;SDS011;20544;50.018;20.010;2023-09-19T14:07:56;6.08;;;5.48;;
23898;SDS011;20544;50.018;20.010;2023-09-19T14:11:13;6.13;;;4.80;;
23898;SDS011;20544;50.018;20.010;2023-09-19T14:14:30;4.78;;;4.35;;
23898;SDS011;20544;50.018;20.010;2023-09-19T14:17:47;5.65;;;4.63;;
23898;SDS011;20544;50.018;20.010;2023-09-19T14:21:04;4.98;;;4.50;;
23898;SDS011;20544;50.018;20.010;2023-09-19T14:24:22;7.40;;;4.50;;
23898;SDS011;20544;50.018;20.010;2023-09-19T14:27:39;5.68;;;4.90;;
23898;SDS011;20544;50.018;20.010;2023-09-19T14:30:55;4.80;;;4.35;;
23898;SDS011;20544;50.018;20.010;2023-09-19T14:34:19;17.38;;;12.63;;
23898;SDS011;20544;50.018;20.010;2023-09-19T14:37:35;12.25;;;6.93;;
23898;SDS011;20544;50.018;20.010;2023-09-19T14:41:00;5.13;;;4.68;;
23898;SDS011;20544;50.018;20.010;2023-09-19T14:44:23;6.33;;;4.80;;
23898;SDS011;20544;50.018;20.010;2023-09-19T14:47:57;4.90;;;4.20;;
23898;SDS011;20544;50.018;20.010;2023-09-19T14:51:18;7.70;;;5.10;;
23898;SDS011;20544;50.018;20.010;2023-09-19T14:54:45;5.43;;;4.55;;
23898;SDS011;20544;50.018;20.010;2023-09-19T14:58:17;5.88;;;5.30;;
23898;SDS011;20544;50.018;20.010;2023-09-19T15:01:38;7.03;;;5.60;;
23898;SDS011;20544;50.018;20.010;2023-09-19T15:04:57;5.85;;;5.23;;
23898;SDS011;20544;50.018;20.010;2023-09-19T15:08:21;9.80;;;5.28;;
23898;SDS011;20544;50.018;20.010;2023-09-19T15:11:44;6.68;;;5.40;;
23898;SDS011;20544;50.018;20.010;2023-09-19T15:15:00;7.85;;;5.50;;
23898;SDS011;20544;50.018;20.010;2023-09-19T15:18:21;8.50;;;6.05;;
23898;SDS011;20544;50.018;20.010;2023-09-19T15:21:42;9.40;;;5.98;;
23898;SDS011;20544;50.018;20.010;2023-09-19T15:25:17;5.63;;;5.10;;
23898;SDS011;20544;50.018;20.010;2023-09-19T15:28:45;6.00;;;5.50;;
23898;SDS011;20544;50.018;20.010;2023-09-19T15:32:03;6.08;;;5.48;;
23898;SDS011;20544;50.018;20.010;2023-09-19T15:35:35;7.38;;;5.40;;
23898;SDS011;20544;50.018;20.010;2023-09-19T15:38:59;7.75;;;6.15;;
23898;SDS011;20544;50.018;20.010;2023-09-19T15:42:50;7.60;;;4.93;;
23898;SDS011;20544;50.018;20.010;2023-09-19T15:46:16;5.75;;;5.05;;
23898;SDS011;20544;50.018;20.010;2023-09-19T15:49:39;5.98;;;5.15;;
23898;SDS011;20544;50.018;20.010;2023-09-19T15:52:57;6.68;;;5.48;;
23898;SDS011;20544;50.018;20.010;2023-09-19T15:56:16;6.13;;;5.13;;
23898;SDS011;20544;50.018;20.010;2023-09-19T15:59:41;7.38;;;4.98;;
23898;SDS011;20544;50.018;20.010;2023-09-19T16:03:20;12.15;;;5.15;;
23898;SDS011;20544;50.018;20.010;2023-09-19T16:07:06;5.18;;;4.68;;
23898;SDS011;20544;50.018;20.010;2023-09-19T16:10:23;6.40;;;4.58;;
23898;SDS011;20544;50.018;20.010;2023-09-19T16:13:56;5.15;;;4.60;;
23898;SDS011;20544;50.018;20.010;2023-09-19T16:17:25;22.30;;;17.13;;
23898;SDS011;20544;50.018;20.010;2023-09-19T16:20:54;7.90;;;6.18;;
23898;SDS011;20544;50.018;20.010;2023-09-19T16:24:19;7.38;;;4.40;;
23898;SDS011;20544;50.018;20.010;2023-09-19T16:27:39;4.83;;;4.10;;
23898;SDS011;20544;50.018;20.010;2023-09-19T16:30:58;9.68;;;4.80;;
23898;SDS011;20544;50.018;20.010;2023-09-19T16:34:16;6.10;;;4.83;;
23898;SDS011;20544;50.018;20.010;2023-09-19T16:37:34;8.13;;;4.88;;
23898;SDS011;20544;50.018;20.010;2023-09-19T16:40:54;12.00;;;5.28;;
23898;SDS011;20544;50.018;20.010;2023-09-19T16:44:12;5.83;;;5.20;;
23898;SDS011;20544;50.018;20.010;2023-09-19T16:47:31;6.18;;;4.70;;
23898;SDS011;20544;50.018;20.010;2023-09-19T16:50:50;7.25;;;5.20;;
23898;SDS011;20544;50.018;20.010;2023-09-19T16:54:15;8.33;;;5.08;;
23898;SDS011;20544;50.018;20.010;2023-09-19T16:57:41;5.40;;;4.75;;
23898;SDS011;20544;50.018;20.010;2023-09-19T17:01:01;4.95;;;4.03;;
23898;SDS011;20544;50.018;20.010;2023-09-19T17:04:32;5.68;;;4.68;;
23898;SDS011;20544;50.018;20.010;2023-09-19T17:07:49;4.88;;;4.35;;
23898;SDS011;20544;50.018;20.010;2023-09-19T17:11:20;6.20;;;4.05;;
23898;SDS011;20544;50.018;20.010;2023-09-19T17:14:42;49.28;;;35.45;;
23898;SDS011;20544;50.018;20.010;2023-09-19T17:18:07;21.75;;;15.55;;
23898;SDS011;20544;50.018;20.010;2023-09-19T17:22:00;9.20;;;6.03;;
23898;SDS011;20544;50.018;20.010;2023-09-19T17:25:30;5.33;;;4.05;;
23898;SDS011;20544;50.018;20.010;2023-09-19T17:28:49;4.80;;;4.08;;
23898;SDS011;20544;50.018;20.010;2023-09-19T17:32:09;5.20;;;3.73;;
23898;SDS011;20544;50.018;20.010;2023-09-19T17:35:26;4.78;;;3.20;;
23898;SDS011;20544;50.018;20.010;2023-09-19T17:38:50;5.58;;;3.90;;
23898;SDS011;20544;50.018;20.010;2023-09-19T17:42:15;5.55;;;3.43;;
23898;SDS011;20544;50.018;20.010;2023-09-19T17:45:34;3.95;;;3.40;;
23898;SDS011;20544;50.018;20.010;2023-09-19T17:48:52;4.80;;;3.33;;
23898;SDS011;20544;50.018;20.010;2023-09-19T17:52:26;3.80;;;3.40;;
23898;SDS011;20544;50.018;20.010;2023-09-19T17:55:54;4.75;;;3.43;;
23898;SDS011;20544;50.018;20.010;2023-09-19T17:59:11;4.98;;;3.58;;
23898;SDS011;20544;50.018;20.010;2023-09-19T18:02:32;3.80;;;3.40;;
23898;SDS011;20544;50.018;20.010;2023-09-19T18:05:51;5.53;;;3.68;;
23898;SDS011;20544;50.018;20.010;2023-09-19T18:09:09;5.75;;;3.10;;
23898;SDS011;20544;50.018;20.010;2023-09-19T18:12:25;10.45;;;3.63;;
23898;SDS011;20544;50.018;20.010;2023-09-19T18:15:46;5.33;;;3.65;;
23898;SDS011;20544;50.018;20.010;2023-09-19T18:19:07;9.25;;;4.38;;
23898;SDS011;20544;50.018;20.010;2023-09-19T18:22:30;4.98;;;3.58;;
23898;SDS011;20544;50.018;20.010;2023-09-19T18:26:10;4.80;;;4.20;;
23898;SDS011;20544;50.018;20.010;2023-09-19T18:29:33;10.88;;;6.70;;
23898;SDS011;20544;50.018;20.010;2023-09-19T18:32:58;11.70;;;5.45;;
23898;SDS011;20544;50.018;20.010;2023-09-19T18:36:21;6.65;;;5.05;;
23898;SDS011;20544;50.018;20.010;2023-09-19T18:39:49;4.78;;;4.20;;
23898;SDS011;20544;50.018;20.010;2023-09-19T18:43:09;4.90;;;4.40;;
23898;SDS011;20544;50.018;20.010;2023-09-19T18:46:39;7.15;;;3.88;;
23898;SDS011;20544;50.018;20.010;2023-09-19T18:50:01;5.35;;;4.40;;
23898;SDS011;20544;50.018;20.010;2023-09-19T18:53:23;6.78;;;4.58;;
23898;SDS011;20544;50.018;20.010;2023-09-19T18:56:41;6.43;;;4.03;;
23898;SDS011;20544;50.018;20.010;2023-09-19T19:00:13;5.30;;;4.18;;
23898;SDS011;20544;50.018;20.010;2023-09-19T19:03:33;6.08;;;3.88;;
23898;SDS011;20544;50.018;20.010;2023-09-19T19:06:53;6.85;;;4.80;;
23898;SDS011;20544;50.018;20.010;2023-09-19T19:10:13;7.25;;;3.60;;
23898;SDS011;20544;50.018;20.010;2023-09-19T19:13:36;7.60;;;5.13;;
23898;SDS011;20544;50.018;20.010;2023-09-19T19:16:56;8.68;;;4.88;;
23898;SDS011;20544;50.018;20.010;2023-09-19T19:20:33;5.40;;;4.10;;
23898;SDS011;20544;50.018;20.010;2023-09-19T19:24:00;5.13;;;4.55;;
23898;SDS011;20544;50.018;20.010;2023-09-19T19:27:30;11.40;;;4.35;;
23898;SDS011;20544;50.018;20.010;2023-09-19T19:31:11;7.55;;;4.70;;
23898;SDS011;20544;50.018;20.010;2023-09-19T19:34:43;11.33;;;5.23;;
23898;SDS011;20544;50.018;20.010;2023-09-19T19:38:35;5.48;;;4.45;;
23898;SDS011;20544;50.018;20.010;2023-09-19T19:42:15;8.25;;;5.23;;
23898;SDS011;20544;50.018;20.010;2023-09-19T19:46:08;6.38;;;4.70;;
23898;SDS011;20544;50.018;20.010;2023-09-19T19:53:48;8.48;;;4.98;;
23898;SDS011;20544;50.018;20.010;2023-09-19T19:57:06;6.63;;;4.93;;
23898;SDS011;20544;50.018;20.010;2023-09-19T20:00:29;7.83;;;5.03;;
23898;SDS011;20544;50.018;20.010;2023-09-19T20:03:49;7.48;;;4.70;;
23898;SDS011;20544;50.018;20.010;2023-09-19T20:07:07;6.23;;;4.85;;
23898;SDS011;20544;50.018;20.010;2023-09-19T20:10:27;5.48;;;4.30;;
23898;SDS011;20544;50.018;20.010;2023-09-19T20:13:47;8.35;;;5.10;;
23898;SDS011;20544;50.018;20.010;2023-09-19T20:17:05;6.33;;;4.65;;
23898;SDS011;20544;50.018;20.010;2023-09-19T20:20:23;5.18;;;4.58;;
23898;SDS011;20544;50.018;20.010;2023-09-19T20:23:45;6.28;;;4.80;;
23898;SDS011;20544;50.018;20.010;2023-09-19T20:27:02;5.33;;;4.58;;
23898;SDS011;20544;50.018;20.010;2023-09-19T20:30:20;8.50;;;4.58;;
23898;SDS011;20544;50.018;20.010;2023-09-19T20:33:39;4.83;;;4.07;;
23898;SDS011;20544;50.018;20.010;2023-09-19T20:36:58;5.75;;;4.50;;
23898;SDS011;20544;50.018;20.010;2023-09-19T20:40:15;7.80;;;4.75;;
23898;SDS011;20544;50.018;20.010;2023-09-19T20:43:32;7.40;;;5.20;;
23898;SDS011;20544;50.018;20.010;2023-09-19T20:46:50;12.73;;;4.80;;
23898;SDS011;20544;50.018;20.010;2023-09-19T20:50:08;7.53;;;4.50;;
23898;SDS011;20544;50.018;20.010;2023-09-19T20:53:26;6.80;;;4.75;;
23898;SDS011;20544;50.018;20.010;2023-09-19T20:56:43;6.40;;;4.80;;
23898;SDS011;20544;50.018;20.010;2023-09-19T21:00:05;10.20;;;4.90;;
23898;SDS011;20544;50.018;20.010;2023-09-19T21:03:25;5.35;;;4.85;;
23898;SDS011;20544;50.018;20.010;2023-09-19T21:06:42;6.90;;;5.05;;
23898;SDS011;20544;50.018;20.010;2023-09-19T21:09:59;6.08;;;5.00;;
23898;SDS011;20544;50.018;20.010;2023-09-19T21:13:21;6.88;;;4.93;;
23898;SDS011;20544;50.018;20.010;2023-09-19T21:16:40;6.28;;;4.63;;
23898;SDS011;20544;50.018;20.010;2023-09-19T21:19:58;7.53;;;4.80;;
23898;SDS011;20544;50.018;20.010;2023-09-19T21:23:15;9.30;;;5.20;;
23898;SDS011;20544;50.018;20.010;2023-09-19T21:26:35;5.93;;;4.98;;
23898;SDS011;20544;50.018;20.010;2023-09-19T21:29:55;5.45;;;4.90;;
23898;SDS011;20544;50.018;20.010;2023-09-19T21:33:12;5.55;;;4.58;;
23898;SDS011;20544;50.018;20.010;2023-09-19T21:36:29;7.43;;;4.63;;
23898;SDS011;20544;50.018;20.010;2023-09-19T21:39:47;6.40;;;4.73;;
23898;SDS011;20544;50.018;20.010;2023-09-19T21:43:04;7.85;;;4.85;;
23898;SDS011;20544;50.018;20.010;2023-09-19T21:46:21;7.35;;;4.95;;
23898;SDS011;20544;50.018;20.010;2023-09-19T21:49:38;4.25;;;3.83;;
23898;SDS011;20544;50.018;20.010;2023-09-19T21:52:55;7.65;;;4.48;;
23898;SDS011;20544;50.018;20.010;2023-09-19T21:56:12;8.48;;;4.60;;
23898;SDS011;20544;50.018;20.010;2023-09-19T21:59:29;6.80;;;4.33;;
23898;SDS011;20544;50.018;20.010;2023-09-19T22:02:46;7.20;;;3.65;;
23898;SDS011;20544;50.018;20.010;2023-09-19T22:06:04;5.33;;;3.98;;
23898;SDS011;20544;50.018;20.010;2023-09-19T22:09:24;5.93;;;3.63;;
23898;SDS011;20544;50.018;20.010;2023-09-19T22:12:40;6.20;;;4.00;;
23898;SDS011;20544;50.018;20.010;2023-09-19T22:15:58;3.83;;;3.30;;
23898;SDS011;20544;50.018;20.010;2023-09-19T22:19:16;4.25;;;3.53;;
23898;SDS011;20544;50.018;20.010;2023-09-19T22:22:32;5.50;;;2.88;;
23898;SDS011;20544;50.018;20.010;2023-09-19T22:25:49;4.85;;;3.38;;
23898;SDS011;20544;50.018;20.010;2023-09-19T22:29:10;5.08;;;3.53;;
23898;SDS011;20544;50.018;20.010;2023-09-19T22:32:28;9.10;;;3.53;;
23898;SDS011;20544;50.018;20.010;2023-09-19T22:35:45;7.40;;;3.60;;
23898;SDS011;20544;50.018;20.010;2023-09-19T22:39:08;5.55;;;3.93;;
23898;SDS011;20544;50.018;20.010;2023-09-19T22:42:28;4.95;;;3.40;;
23898;SDS011;20544;50.018;20.010;2023-09-19T22:45:47;3.65;;;3.20;;
23898;SDS011;20544;50.018;20.010;2023-09-19T22:49:04;6.13;;;3.13;;
23898;SDS011;20544;50.018;20.010;2023-09-19T22:52:24;6.55;;;3.30;;
23898;SDS011;20544;50.018;20.010;2023-09-19T22:55:44;4.23;;;3.18;;
23898;SDS011;20544;50.018;20.010;2023-09-19T22:59:02;4.85;;;3.20;;
23898;SDS011;20544;50.018;20.010;2023-09-19T23:02:19;6.58;;;3.43;;
23898;SDS011;20544;50.018;20.010;2023-09-19T23:05:37;4.85;;;3.68;;
23898;SDS011;20544;50.018;20.010;2023-09-19T23:08:54;7.83;;;3.30;;
23898;SDS011;20544;50.018;20.010;2023-09-19T23:12:14;5.65;;;2.90;;
23898;SDS011;20544;50.018;20.010;2023-09-19T23:15:31;4.78;;;3.35;;
23898;SDS011;20544;50.018;20.010;2023-09-19T23:18:55;5.05;;;3.15;;
23898;SDS011;20544;50.018;20.010;2023-09-19T23:22:14;6.93;;;3.68;;
23898;SDS011;20544;50.018;20.010;2023-09-19T23:25:36;4.55;;;3.68;;
23898;SDS011;20544;50.018;20.010;2023-09-19T23:28:54;3.83;;;3.05;;
23898;SDS011;20544;50.018;20.010;2023-09-19T23:32:12;6.98;;;3.85;;
23898;SDS011;20544;50.018;20.010;2023-09-19T23:35:29;6.05;;;3.25;;
23898;SDS011;20544;50.018;20.010;2023-09-19T23:38:46;7.88;;;3.55;;
23898;SDS011;20544;50.018;20.010;2023-09-19T23:42:05;3.20;;;2.90;;
23898;SDS011;20544;50.018;20.010;2023-09-19T23:45:23;4.53;;;3.30;;
23898;SDS011;20544;50.018;20.010;2023-09-19T23:48:42;14.53;;;3.30;;
23898;SDS011;20544;50.018;20.010;2023-09-19T23:51:59;4.58;;;2.93;;
23898;SDS011;20544;50.018;20.010;2023-09-19T23:55:19;4.35;;;3.03;;
23898;SDS011;20544;50.018;20.010;2023-09-19T23:58:36;3.93;;;3.25;;
